createdAt,value
2017-02-19T00:01:09.102Z,1.41
2017-02-19T00:02:18.616Z,1.34
2017-02-19T00:03:28.443Z,1.42
2017-02-19T00:04:38.353Z,1.44
2017-02-19T00:05:47.583Z,1.34
2017-02-19T00:06:56.697Z,1.29
2017-02-19T00:08:05.419Z,1.23
2017-02-19T00:09:14.522Z,1.3
2017-02-19T00:10:24.059Z,1.09
2017-02-19T00:11:33.906Z,1.09
2017-02-19T00:12:42.611Z,0.97
2017-02-19T00:13:51.830Z,0.83
2017-02-19T00:15:00.898Z,0.96
2017-02-19T00:16:10.361Z,0.91
2017-02-19T00:17:19.437Z,0.96
2017-02-19T00:18:28.889Z,0.97
2017-02-19T00:19:38.328Z,0.98
2017-02-19T00:20:47.780Z,0.96
2017-02-19T00:21:57.618Z,0.9
2017-02-19T00:23:07.447Z,0.84
2017-02-19T00:24:16.127Z,0.84
2017-02-19T00:25:25.209Z,0.94
2017-02-19T00:26:34.270Z,1.04
2017-02-19T00:27:43.729Z,1.12
2017-02-19T00:28:52.800Z,1.18
2017-02-19T00:30:02.252Z,1.34
2017-02-19T00:31:12.076Z,1.32
2017-02-19T00:32:21.543Z,1.4
2017-02-19T00:33:30.991Z,1.45
2017-02-19T00:34:41.613Z,1.4
2017-02-19T00:35:51.061Z,1.36
2017-02-19T00:37:00.504Z,1.44
2017-02-19T00:38:09.219Z,1.36
2017-02-19T00:39:18.288Z,1.27
2017-02-19T00:40:27.344Z,1.22
2017-02-19T00:41:36.451Z,1.09
2017-02-19T00:42:45.931Z,0.93
2017-02-19T00:43:55.758Z,0.75
2017-02-19T00:45:04.817Z,0.65
2017-02-19T00:46:14.293Z,0.41
2017-02-19T00:47:22.972Z,0.33
2017-02-19T00:48:32.422Z,0.11
2017-02-19T00:49:42.250Z,-0.01
2017-02-19T00:50:51.713Z,-0.1
2017-02-19T00:52:00.770Z,-0.18
2017-02-19T00:53:10.240Z,-0.34
2017-02-19T00:54:19.311Z,-0.23
2017-02-19T00:55:27.994Z,-0.22
2017-02-19T00:56:37.458Z,-0.04
2017-02-19T00:57:46.544Z,0.17
2017-02-19T00:58:56.007Z,0.33
2017-02-19T01:00:04.693Z,0.5
2017-02-19T01:01:13.792Z,0.76
2017-02-19T01:02:23.647Z,0.86
2017-02-19T01:03:32.727Z,0.78
2017-02-19T01:04:42.190Z,1.14
2017-02-19T01:05:51.259Z,1.37
2017-02-19T01:07:01.503Z,1.54
2017-02-19T01:08:10.952Z,1.73
2017-02-19T01:09:20.789Z,2
2017-02-19T01:10:31.406Z,2.1
2017-02-19T01:11:41.263Z,2.27
2017-02-19T01:12:50.713Z,2.2
2017-02-19T01:14:00.547Z,2.18
2017-02-19T01:15:10.386Z,2.2
2017-02-19T01:16:19.449Z,2.24
2017-02-19T01:17:29.272Z,2.3
2017-02-19T01:18:39.125Z,2.38
2017-02-19T01:19:47.810Z,2.46
2017-02-19T01:20:57.638Z,2.56
2017-02-19T01:22:06.712Z,2.54
2017-02-19T01:23:15.418Z,2.49
2017-02-19T01:24:24.518Z,2.59
2017-02-19T01:25:33.590Z,2.67
2017-02-19T01:26:42.655Z,2.75
2017-02-19T01:27:52.123Z,2.81
2017-02-19T01:29:01.582Z,2.81
2017-02-19T01:30:11.779Z,2.81
2017-02-19T01:31:21.222Z,2.74
2017-02-19T01:32:30.677Z,2.72
2017-02-19T01:33:39.727Z,2.6
2017-02-19T01:34:49.175Z,2.54
2017-02-19T01:35:58.613Z,2.57
2017-02-19T01:37:08.099Z,2.54
2017-02-19T01:38:17.545Z,2.43
2017-02-19T01:39:26.612Z,2.36
2017-02-19T01:40:35.308Z,2.42
2017-02-19T01:41:45.144Z,2.39
2017-02-19T01:42:53.812Z,2.28
2017-02-19T01:44:03.283Z,2.21
2017-02-19T01:45:13.124Z,2.17
2017-02-19T01:46:21.817Z,2.2
2017-02-19T01:47:30.901Z,2.03
2017-02-19T01:48:39.991Z,2.09
2017-02-19T01:49:49.076Z,2.1
2017-02-19T01:50:58.527Z,2
2017-02-19T01:52:07.589Z,1.83
2017-02-19T01:53:17.053Z,1.79
2017-02-19T01:54:25.743Z,1.6
2017-02-19T01:55:35.194Z,1.62
2017-02-19T01:56:44.243Z,1.42
2017-02-19T01:57:53.692Z,1.33
2017-02-19T01:59:02.364Z,1.11
2017-02-19T02:00:11.054Z,0.98
2017-02-19T02:01:20.520Z,1.04
2017-02-19T02:02:30.358Z,1.05
2017-02-19T02:03:39.435Z,1.12
2017-02-19T02:04:48.133Z,1.08
2017-02-19T02:05:58.348Z,0.98
2017-02-19T02:07:07.423Z,1.04
2017-02-19T02:08:16.095Z,1.12
2017-02-19T02:09:26.313Z,1.32
2017-02-19T02:10:35.376Z,1.45
2017-02-19T02:11:44.461Z,1.52
2017-02-19T02:12:53.900Z,1.48
2017-02-19T02:14:04.104Z,1.59
2017-02-19T02:15:13.941Z,1.47
2017-02-19T02:16:23.030Z,1.4
2017-02-19T02:17:32.114Z,1.23
2017-02-19T02:18:41.946Z,1.15
2017-02-19T02:19:51.788Z,1.15
2017-02-19T02:21:01.230Z,1
2017-02-19T02:22:11.070Z,0.96
2017-02-19T02:23:20.153Z,0.94
2017-02-19T02:24:29.979Z,0.93
2017-02-19T02:25:39.039Z,0.9
2017-02-19T02:26:48.096Z,1.02
2017-02-19T02:27:57.940Z,1.27
2017-02-19T02:29:07.033Z,1.36
2017-02-19T02:30:16.492Z,1.47
2017-02-19T02:31:26.321Z,1.42
2017-02-19T02:32:36.159Z,1.45
2017-02-19T02:33:45.623Z,1.55
2017-02-19T02:34:55.068Z,1.54
2017-02-19T02:36:04.933Z,1.62
2017-02-19T02:37:14.382Z,1.59
2017-02-19T02:38:23.835Z,1.59
2017-02-19T02:39:33.290Z,1.62
2017-02-19T02:40:42.342Z,1.69
2017-02-19T02:41:51.785Z,1.79
2017-02-19T02:43:01.627Z,1.65
2017-02-19T02:44:11.456Z,1.7
2017-02-19T02:45:20.911Z,1.58
2017-02-19T02:46:30.359Z,1.69
2017-02-19T02:47:39.098Z,1.7
2017-02-19T02:48:48.581Z,1.58
2017-02-19T02:49:58.059Z,1.58
2017-02-19T02:51:07.124Z,1.55
2017-02-19T02:52:16.184Z,1.69
2017-02-19T02:53:25.636Z,1.66
2017-02-19T02:54:34.704Z,1.68
2017-02-19T02:55:44.543Z,1.83
2017-02-19T02:56:53.617Z,2.06
2017-02-19T02:58:03.070Z,2.07
2017-02-19T02:59:12.145Z,1.99
2017-02-19T03:00:21.974Z,2.21
2017-02-19T03:01:31.439Z,2.14
2017-02-19T03:02:41.255Z,2.17
2017-02-19T03:03:50.705Z,2.09
2017-02-19T03:04:59.389Z,2.02
2017-02-19T03:06:09.222Z,2.03
2017-02-19T03:07:18.653Z,1.9
2017-02-19T03:08:27.722Z,1.83
2017-02-19T03:09:37.573Z,1.7
2017-02-19T03:10:46.641Z,1.58
2017-02-19T03:11:56.468Z,1.59
2017-02-19T03:13:05.916Z,1.62
2017-02-19T03:14:14.985Z,1.65
2017-02-19T03:15:24.441Z,1.79
2017-02-19T03:16:33.520Z,1.81
2017-02-19T03:17:43.344Z,1.8
2017-02-19T03:18:53.549Z,1.81
2017-02-19T03:20:03.761Z,1.99
2017-02-19T03:21:13.220Z,1.9
2017-02-19T03:22:22.670Z,1.99
2017-02-19T03:23:31.738Z,1.98
2017-02-19T03:24:40.825Z,2.18
2017-02-19T03:25:50.262Z,2.24
2017-02-19T03:26:59.726Z,2.42
2017-02-19T03:28:09.559Z,2.36
2017-02-19T03:29:18.659Z,2.36
2017-02-19T03:30:28.479Z,2.77
2017-02-19T03:31:37.932Z,2.69
2017-02-19T03:32:47.373Z,2.54
2017-02-19T03:33:56.432Z,2.52
2017-02-19T03:35:07.036Z,2.36
2017-02-19T03:36:16.104Z,2.3
2017-02-19T03:37:24.804Z,2.23
2017-02-19T03:38:33.901Z,2.18
2017-02-19T03:39:43.374Z,2.21
2017-02-19T03:40:52.434Z,2.17
2017-02-19T03:42:01.898Z,2.16
2017-02-19T03:43:11.350Z,2.12
2017-02-19T03:44:20.410Z,2.18
2017-02-19T03:45:29.857Z,2.2
2017-02-19T03:46:38.915Z,2.23
2017-02-19T03:47:48.746Z,2.2
2017-02-19T03:48:57.808Z,2.23
2017-02-19T03:50:07.275Z,2.24
2017-02-19T03:51:16.730Z,2.21
2017-02-19T03:52:25.814Z,2.18
2017-02-19T03:53:34.505Z,2.21
2017-02-19T03:54:43.990Z,2.27
2017-02-19T03:55:53.088Z,2.39
2017-02-19T03:57:02.165Z,2.53
2017-02-19T03:58:11.235Z,2.48
2017-02-19T03:59:20.721Z,2.56
2017-02-19T04:00:29.791Z,2.45
2017-02-19T04:01:38.848Z,2.48
2017-02-19T04:02:48.727Z,2.23
2017-02-19T04:03:57.816Z,2.34
2017-02-19T04:05:07.267Z,2.18
2017-02-19T04:06:15.955Z,2.07
2017-02-19T04:07:26.155Z,2.18
2017-02-19T04:08:36.007Z,2.16
2017-02-19T04:09:45.458Z,2.16
2017-02-19T04:10:55.283Z,2.05
2017-02-19T04:12:04.728Z,2
2017-02-19T04:13:14.176Z,1.81
2017-02-19T04:14:23.246Z,1.72
2017-02-19T04:15:33.108Z,1.62
2017-02-19T04:16:42.968Z,1.51
2017-02-19T04:17:52.031Z,1.51
2017-02-19T04:19:01.509Z,1.52
2017-02-19T04:20:11.333Z,1.45
2017-02-19T04:21:20.775Z,1.54
2017-02-19T04:22:30.232Z,1.59
2017-02-19T04:23:38.919Z,1.54
2017-02-19T04:24:48.381Z,1.65
2017-02-19T04:25:58.603Z,1.63
2017-02-19T04:27:07.681Z,1.63
2017-02-19T04:28:16.859Z,1.65
2017-02-19T04:29:26.312Z,1.72
2017-02-19T04:30:36.138Z,1.9
2017-02-19T04:31:45.213Z,1.91
2017-02-19T04:32:54.682Z,1.81
2017-02-19T04:34:04.909Z,1.77
2017-02-19T04:35:13.971Z,1.65
2017-02-19T04:36:23.035Z,1.65
2017-02-19T04:37:32.876Z,1.8
2017-02-19T04:38:42.703Z,1.77
2017-02-19T04:39:52.921Z,1.86
2017-02-19T04:41:02.763Z,1.87
2017-02-19T04:42:11.825Z,1.76
2017-02-19T04:43:21.292Z,1.79
2017-02-19T04:44:30.359Z,1.79
2017-02-19T04:45:39.826Z,1.87
2017-02-19T04:46:49.295Z,1.9
2017-02-19T04:47:58.383Z,1.93
2017-02-19T04:49:07.852Z,1.91
2017-02-19T04:50:17.299Z,1.99
2017-02-19T04:51:26.359Z,1.95
2017-02-19T04:52:35.422Z,2.18
2017-02-19T04:53:44.485Z,2.23
2017-02-19T04:54:54.695Z,2.41
2017-02-19T04:56:04.538Z,2.34
2017-02-19T04:57:13.605Z,2.36
2017-02-19T04:58:23.440Z,2.25
2017-02-19T04:59:33.276Z,2.2
2017-02-19T05:00:42.336Z,2.05
2017-02-19T05:01:51.027Z,1.87
2017-02-19T05:02:59.704Z,1.77
2017-02-19T05:04:09.148Z,1.6
2017-02-19T05:05:18.606Z,1.52
2017-02-19T05:06:28.428Z,1.45
2017-02-19T05:07:37.496Z,1.41
2017-02-19T05:08:46.180Z,1.34
2017-02-19T05:09:55.250Z,1.4
2017-02-19T05:11:04.330Z,1.54
2017-02-19T05:12:14.543Z,1.48
2017-02-19T05:13:23.621Z,1.6
2017-02-19T05:14:33.457Z,1.6
2017-02-19T05:15:42.525Z,1.59
2017-02-19T05:16:52.347Z,1.6
2017-02-19T05:18:01.405Z,1.59
2017-02-19T05:19:11.241Z,1.69
2017-02-19T05:20:20.686Z,1.65
2017-02-19T05:21:30.523Z,1.7
2017-02-19T05:22:39.577Z,1.87
2017-02-19T05:23:48.639Z,2.03
2017-02-19T05:24:57.710Z,2.05
2017-02-19T05:26:07.160Z,2.14
2017-02-19T05:27:16.226Z,2.24
2017-02-19T05:28:25.289Z,2.36
2017-02-19T05:29:35.114Z,2.25
2017-02-19T05:30:43.798Z,2.41
2017-02-19T05:31:53.622Z,2.25
2017-02-19T05:33:03.450Z,2.21
2017-02-19T05:34:13.271Z,2.3
2017-02-19T05:35:22.328Z,2.3
2017-02-19T05:36:31.782Z,2.23
2017-02-19T05:37:41.630Z,2.27
2017-02-19T05:38:51.483Z,2.21
2017-02-19T05:40:00.941Z,2.09
2017-02-19T05:41:10.014Z,2.06
2017-02-19T05:42:19.067Z,2.02
2017-02-19T05:43:28.529Z,2.05
2017-02-19T05:44:37.593Z,2.05
2017-02-19T05:45:47.444Z,2.07
2017-02-19T05:46:57.289Z,2.02
2017-02-19T05:48:06.354Z,2.07
2017-02-19T05:49:15.421Z,2.05
2017-02-19T05:50:24.482Z,2.02
2017-02-19T05:51:33.554Z,2.21
2017-02-19T05:52:43.026Z,2.23
2017-02-19T05:53:52.097Z,2.25
2017-02-19T05:55:01.934Z,2.27
2017-02-19T05:56:11.388Z,2.36
2017-02-19T05:57:21.233Z,2.35
2017-02-19T05:58:31.076Z,2.28
2017-02-19T05:59:40.155Z,2.18
2017-02-19T06:00:48.844Z,2.24
2017-02-19T06:01:58.673Z,2.21
2017-02-19T06:03:08.499Z,2.21
2017-02-19T06:04:17.179Z,2.16
2017-02-19T06:05:27.029Z,2.23
2017-02-19T06:06:36.468Z,2.2
2017-02-19T06:07:45.542Z,2.28
2017-02-19T06:08:54.651Z,2.25
2017-02-19T06:10:03.368Z,2.24
2017-02-19T06:11:12.445Z,2.38
2017-02-19T06:12:21.509Z,2.2
2017-02-19T06:13:30.978Z,2.28
2017-02-19T06:14:40.048Z,2.31
2017-02-19T06:15:49.500Z,2.3
2017-02-19T06:16:58.572Z,2.39
2017-02-19T06:18:08.025Z,2.53
2017-02-19T06:19:17.495Z,2.52
2017-02-19T06:20:26.959Z,2.54
2017-02-19T06:21:36.024Z,2.46
2017-02-19T06:22:45.082Z,2.48
2017-02-19T06:23:54.158Z,2.36
2017-02-19T06:25:03.599Z,2.28
2017-02-19T06:26:12.665Z,2.25
2017-02-19T06:27:21.736Z,2.34
2017-02-19T06:28:31.566Z,2.18
2017-02-19T06:29:40.641Z,2.16
2017-02-19T06:30:50.077Z,2.09
2017-02-19T06:31:59.556Z,2.21
2017-02-19T06:33:09.391Z,2.16
2017-02-19T06:34:18.456Z,2.16
2017-02-19T06:35:27.929Z,2.3
2017-02-19T06:36:37.396Z,2.16
2017-02-19T06:37:46.833Z,2.18
2017-02-19T06:38:56.281Z,2.14
2017-02-19T06:40:06.488Z,2.18
2017-02-19T06:41:16.316Z,2.2
2017-02-19T06:42:25.759Z,2.27
2017-02-19T06:43:34.452Z,2.34
2017-02-19T06:44:43.904Z,2.46
2017-02-19T06:45:53.341Z,2.74
2017-02-19T06:47:02.793Z,2.96
2017-02-19T06:48:11.873Z,3.11
2017-02-19T06:49:21.326Z,3.05
2017-02-19T06:50:31.193Z,3.11
2017-02-19T06:51:39.882Z,3.1
2017-02-19T06:52:48.946Z,3.08
2017-02-19T06:53:57.997Z,2.96
2017-02-19T06:55:07.084Z,3.03
2017-02-19T06:56:16.144Z,2.99
2017-02-19T06:57:25.588Z,3.1
2017-02-19T06:58:35.044Z,3.1
2017-02-19T06:59:44.111Z,3.1
2017-02-19T07:00:53.166Z,3.1
2017-02-19T07:02:02.610Z,3.24
2017-02-19T07:03:12.435Z,3.2
2017-02-19T07:04:21.544Z,3.28
2017-02-19T07:05:30.610Z,3.29
2017-02-19T07:06:40.440Z,3.39
2017-02-19T07:07:49.518Z,3.42
2017-02-19T07:08:58.592Z,3.57
2017-02-19T07:10:08.432Z,3.5
2017-02-19T07:11:17.115Z,3.57
2017-02-19T07:12:26.594Z,3.57
2017-02-19T07:13:36.041Z,3.66
2017-02-19T07:14:45.520Z,3.6
2017-02-19T07:15:54.586Z,3.61
2017-02-19T07:17:03.642Z,3.7
2017-02-19T07:18:13.100Z,3.69
2017-02-19T07:19:22.164Z,3.76
2017-02-19T07:20:31.241Z,3.93
2017-02-19T07:21:40.685Z,3.9
2017-02-19T07:22:50.138Z,4
2017-02-19T07:23:59.590Z,3.94
2017-02-19T07:25:08.652Z,3.94
2017-02-19T07:26:18.489Z,3.9
2017-02-19T07:27:27.565Z,4.05
2017-02-19T07:28:37.022Z,4.04
2017-02-19T07:29:47.235Z,4.11
2017-02-19T07:30:56.696Z,4.15
2017-02-19T07:32:06.144Z,4.11
2017-02-19T07:33:15.207Z,4.16
2017-02-19T07:34:25.043Z,4.29
2017-02-19T07:35:34.498Z,4.3
2017-02-19T07:36:44.742Z,4.27
2017-02-19T07:37:53.804Z,4.24
2017-02-19T07:39:04.024Z,4.34
2017-02-19T07:40:13.492Z,4.34
2017-02-19T07:41:22.571Z,4.37
2017-02-19T07:42:31.253Z,4.26
2017-02-19T07:43:40.704Z,4.24
2017-02-19T07:44:50.537Z,4.22
2017-02-19T07:45:59.609Z,4.41
2017-02-19T07:47:08.703Z,4.42
2017-02-19T07:48:17.795Z,4.4
2017-02-19T07:49:27.244Z,4.32
2017-02-19T07:50:35.922Z,4.32
2017-02-19T07:51:45.011Z,4.4
2017-02-19T07:52:54.467Z,4.4
2017-02-19T07:54:03.534Z,4.33
2017-02-19T07:55:13.360Z,4.47
2017-02-19T07:56:23.206Z,4.32
2017-02-19T07:57:32.281Z,4.29
2017-02-19T07:58:41.330Z,4.41
2017-02-19T07:59:50.397Z,4.45
2017-02-19T08:00:59.472Z,4.4
2017-02-19T08:02:08.531Z,4.47
2017-02-19T08:03:17.597Z,4.51
2017-02-19T08:04:26.674Z,4.52
2017-02-19T08:05:35.763Z,4.62
2017-02-19T08:06:45.601Z,4.59
2017-02-19T08:07:55.049Z,4.52
2017-02-19T08:09:04.105Z,4.58
2017-02-19T08:10:13.935Z,4.63
2017-02-19T08:11:23.797Z,4.69
2017-02-19T08:12:32.886Z,4.99
2017-02-19T08:13:42.332Z,5.15
2017-02-19T08:14:51.802Z,5.15
2017-02-19T08:16:00.491Z,5.1
2017-02-19T08:17:10.327Z,5.21
2017-02-19T08:18:19.411Z,5.25
2017-02-19T08:19:28.863Z,5.36
2017-02-19T08:20:38.314Z,5.35
2017-02-19T08:21:47.762Z,5.21
2017-02-19T08:22:57.591Z,5.2
2017-02-19T08:24:07.051Z,5.09
2017-02-19T08:25:15.764Z,5.1
2017-02-19T08:26:25.247Z,5.18
2017-02-19T08:27:34.699Z,5.18
2017-02-19T08:28:43.769Z,5.2
2017-02-19T08:29:53.994Z,5.09
2017-02-19T08:31:04.256Z,5.02
2017-02-19T08:32:13.307Z,5.04
2017-02-19T08:33:23.127Z,5.02
2017-02-19T08:34:32.975Z,5.06
2017-02-19T08:35:42.437Z,5.1
2017-02-19T08:36:51.494Z,5.12
2017-02-19T08:38:00.560Z,5.12
2017-02-19T08:39:10.007Z,5.1
2017-02-19T08:40:19.470Z,5.18
2017-02-19T08:41:28.925Z,5.17
2017-02-19T08:42:38.021Z,5.24
2017-02-19T08:43:47.100Z,5.24
2017-02-19T08:44:56.190Z,5.18
2017-02-19T08:46:06.023Z,5.21
2017-02-19T08:47:15.468Z,5.21
2017-02-19T08:48:25.318Z,5.21
2017-02-19T08:49:34.767Z,5.22
2017-02-19T08:50:44.611Z,5.21
2017-02-19T08:51:54.072Z,5.28
2017-02-19T08:53:03.537Z,5.17
2017-02-19T08:54:13.748Z,5.21
2017-02-19T08:55:22.818Z,5.21
2017-02-19T08:56:32.277Z,5.22
2017-02-19T08:57:41.341Z,5.28
2017-02-19T08:58:50.810Z,5.28
2017-02-19T09:00:00.268Z,5.46
2017-02-19T09:01:09.741Z,5.57
2017-02-19T09:02:18.809Z,5.51
2017-02-19T09:03:28.645Z,5.54
2017-02-19T09:04:37.352Z,5.56
2017-02-19T09:05:46.836Z,5.53
2017-02-19T09:06:56.323Z,5.53
2017-02-19T09:08:05.783Z,5.51
2017-02-19T09:09:15.287Z,5.75
2017-02-19T09:10:25.159Z,5.79
2017-02-19T09:11:34.632Z,5.82
2017-02-19T09:12:44.117Z,5.81
2017-02-19T09:13:53.189Z,5.83
2017-02-19T09:15:03.019Z,5.78
2017-02-19T09:16:13.236Z,5.71
2017-02-19T09:17:21.927Z,5.65
2017-02-19T09:18:31.394Z,5.51
2017-02-19T09:19:40.472Z,5.53
2017-02-19T09:20:50.311Z,5.56
2017-02-19T09:21:58.995Z,5.51
2017-02-19T09:23:08.448Z,5.6
2017-02-19T09:24:17.515Z,5.65
2017-02-19T09:25:28.085Z,5.72
2017-02-19T09:26:37.163Z,5.79
2017-02-19T09:27:46.261Z,5.91
2017-02-19T09:28:54.979Z,5.83
2017-02-19T09:30:04.823Z,5.91
2017-02-19T09:31:14.310Z,5.99
2017-02-19T09:32:23.391Z,6.04
2017-02-19T09:33:32.884Z,5.96
2017-02-19T09:34:42.339Z,5.94
2017-02-19T09:35:52.171Z,6
2017-02-19T09:37:01.242Z,6.04
2017-02-19T09:38:11.082Z,6.15
2017-02-19T09:39:20.189Z,6.11
2017-02-19T09:40:29.674Z,6.19
2017-02-19T09:41:39.561Z,6.28
2017-02-19T09:42:48.268Z,6.34
2017-02-19T09:43:57.717Z,6.34
2017-02-19T09:45:06.793Z,6.4
2017-02-19T09:46:16.623Z,6.43
2017-02-19T09:47:26.452Z,6.44
2017-02-19T09:48:35.538Z,6.43
2017-02-19T09:49:45.363Z,6.49
2017-02-19T09:50:55.233Z,6.44
2017-02-19T09:52:04.684Z,6.43
2017-02-19T09:53:14.150Z,6.38
2017-02-19T09:54:23.236Z,6.33
2017-02-19T09:55:32.323Z,6.21
2017-02-19T09:56:41.802Z,6.15
2017-02-19T09:57:51.246Z,6.09
2017-02-19T09:59:00.702Z,6.04
2017-02-19T10:00:10.521Z,5.99
2017-02-19T10:01:20.362Z,5.96
2017-02-19T10:02:30.193Z,5.9
2017-02-19T10:03:39.691Z,5.9
2017-02-19T10:04:48.763Z,5.76
2017-02-19T10:05:57.821Z,5.81
2017-02-19T10:07:07.669Z,5.72
2017-02-19T10:08:16.765Z,5.89
2017-02-19T10:09:26.224Z,5.79
2017-02-19T10:10:36.429Z,5.68
2017-02-19T10:11:45.491Z,5.79
2017-02-19T10:12:54.570Z,5.74
2017-02-19T10:14:04.020Z,5.76
2017-02-19T10:15:13.462Z,5.63
2017-02-19T10:16:23.302Z,5.63
2017-02-19T10:17:32.744Z,5.56
2017-02-19T10:18:42.585Z,5.49
2017-02-19T10:19:52.044Z,5.43
2017-02-19T10:21:02.265Z,5.46
2017-02-19T10:22:10.960Z,5.51
2017-02-19T10:23:20.024Z,5.42
2017-02-19T10:24:29.485Z,5.4
2017-02-19T10:25:39.311Z,5.49
2017-02-19T10:26:48.757Z,5.48
2017-02-19T10:27:57.826Z,5.4
2017-02-19T10:29:06.890Z,5.43
2017-02-19T10:30:17.155Z,5.6
2017-02-19T10:31:26.611Z,5.48
2017-02-19T10:32:36.062Z,5.54
2017-02-19T10:33:45.511Z,5.56
2017-02-19T10:34:54.954Z,5.67
2017-02-19T10:36:04.798Z,5.61
2017-02-19T10:37:14.244Z,5.75
2017-02-19T10:38:23.330Z,5.68
2017-02-19T10:39:32.786Z,5.85
2017-02-19T10:40:42.228Z,5.75
2017-02-19T10:41:51.678Z,5.79
2017-02-19T10:43:01.133Z,5.76
2017-02-19T10:44:10.589Z,5.75
2017-02-19T10:45:19.695Z,5.68
2017-02-19T10:46:28.759Z,5.72
2017-02-19T10:47:38.591Z,5.85
2017-02-19T10:48:47.659Z,5.81
2017-02-19T10:49:56.725Z,5.82
2017-02-19T10:51:06.180Z,5.86
2017-02-19T10:52:15.998Z,5.78
2017-02-19T10:53:25.829Z,5.79
2017-02-19T10:54:35.653Z,5.78
2017-02-19T10:55:45.109Z,5.78
2017-02-19T10:56:54.552Z,5.81
2017-02-19T10:58:04.394Z,5.78
2017-02-19T10:59:13.867Z,5.89
2017-02-19T11:00:22.558Z,5.82
2017-02-19T11:01:31.998Z,6.03
2017-02-19T11:02:41.092Z,6
2017-02-19T11:03:50.539Z,6.11
2017-02-19T11:04:59.992Z,6.18
2017-02-19T11:06:09.458Z,6.12
2017-02-19T11:07:18.571Z,6.12
2017-02-19T11:08:27.644Z,6.27
2017-02-19T11:09:36.339Z,6.34
2017-02-19T11:10:45.053Z,6.34
2017-02-19T11:11:54.501Z,6.33
2017-02-19T11:13:03.950Z,6.31
2017-02-19T11:14:13.413Z,6.21
2017-02-19T11:15:22.099Z,6.14
2017-02-19T11:16:31.189Z,6.17
2017-02-19T11:17:40.254Z,6.11
2017-02-19T11:18:49.315Z,6.08
2017-02-19T11:19:58.015Z,6.03
2017-02-19T11:21:07.472Z,6
2017-02-19T11:22:17.710Z,5.97
2017-02-19T11:23:26.784Z,5.86
2017-02-19T11:24:36.237Z,5.9
2017-02-19T11:25:45.686Z,5.86
2017-02-19T11:26:54.754Z,5.74
2017-02-19T11:28:04.609Z,5.85
2017-02-19T11:29:13.687Z,5.67
2017-02-19T11:30:23.141Z,5.61
2017-02-19T11:31:32.988Z,5.65
2017-02-19T11:32:42.814Z,5.6
2017-02-19T11:33:52.272Z,5.48
2017-02-19T11:35:01.379Z,5.56
2017-02-19T11:36:10.851Z,5.63
2017-02-19T11:37:19.934Z,5.61
2017-02-19T11:38:29.776Z,5.58
2017-02-19T11:39:39.218Z,5.71
2017-02-19T11:40:49.051Z,5.68
2017-02-19T11:41:58.520Z,5.75
2017-02-19T11:43:07.967Z,5.78
2017-02-19T11:44:17.057Z,5.85
2017-02-19T11:45:26.159Z,5.81
2017-02-19T11:46:35.613Z,5.81
2017-02-19T11:47:44.689Z,5.76
2017-02-19T11:48:53.384Z,5.9
2017-02-19T11:50:03.606Z,5.9
2017-02-19T11:51:13.077Z,5.93
2017-02-19T11:52:21.768Z,5.97
2017-02-19T11:53:31.227Z,5.97
2017-02-19T11:54:41.083Z,5.85
2017-02-19T11:55:50.145Z,5.99
2017-02-19T11:56:59.245Z,5.93
2017-02-19T11:58:08.304Z,5.9
2017-02-19T11:59:17.388Z,5.86
2017-02-19T12:00:26.854Z,5.79
2017-02-19T12:01:36.723Z,5.82
2017-02-19T12:02:46.174Z,5.82
2017-02-19T12:03:55.254Z,5.79
2017-02-19T12:05:05.121Z,5.78
2017-02-19T12:06:14.188Z,5.74
2017-02-19T12:07:23.255Z,5.79
2017-02-19T12:08:32.745Z,5.79
2017-02-19T12:09:42.221Z,5.78
2017-02-19T12:10:52.444Z,5.83
2017-02-19T12:12:02.272Z,5.83
2017-02-19T12:13:11.344Z,5.72
2017-02-19T12:14:20.799Z,5.71
2017-02-19T12:15:30.254Z,5.68
2017-02-19T12:16:39.311Z,5.68
2017-02-19T12:17:48.398Z,5.76
2017-02-19T12:18:57.083Z,5.67
2017-02-19T12:20:06.538Z,5.85
2017-02-19T12:21:15.600Z,5.83
2017-02-19T12:22:25.048Z,6
2017-02-19T12:23:34.889Z,6.01
2017-02-19T12:24:43.588Z,6.12
2017-02-19T12:25:53.064Z,6.11
2017-02-19T12:27:02.134Z,6.15
2017-02-19T12:28:10.842Z,6.14
2017-02-19T12:29:19.901Z,6.08
2017-02-19T12:30:29.343Z,6.12
2017-02-19T12:31:38.798Z,6.08
2017-02-19T12:32:47.856Z,6.01
2017-02-19T12:33:56.554Z,6.12
2017-02-19T12:35:06.799Z,6.19
2017-02-19T12:36:15.504Z,6.01
2017-02-19T12:37:24.223Z,5.96
2017-02-19T12:38:33.720Z,6.06
2017-02-19T12:39:43.543Z,6.12
2017-02-19T12:40:52.613Z,6.14
2017-02-19T12:42:02.443Z,6.19
2017-02-19T12:43:12.272Z,6.18
2017-02-19T12:44:21.352Z,6.12
2017-02-19T12:45:30.455Z,6.12
2017-02-19T12:46:40.279Z,6.14
2017-02-19T12:47:50.125Z,6.17
2017-02-19T12:48:59.974Z,6.12
2017-02-19T12:50:10.196Z,6.19
2017-02-19T12:51:20.041Z,6.21
2017-02-19T12:52:29.129Z,6.31
2017-02-19T12:53:38.602Z,6.34
2017-02-19T12:54:47.691Z,6.33
2017-02-19T12:55:57.171Z,6.21
2017-02-19T12:57:06.637Z,6.28
2017-02-19T12:58:15.348Z,6.28
2017-02-19T12:59:25.205Z,6.21
2017-02-19T13:00:35.036Z,6.27
2017-02-19T13:01:44.502Z,6.33
2017-02-19T13:02:53.568Z,6.21
2017-02-19T13:04:03.412Z,6.22
2017-02-19T13:05:12.473Z,6.19
2017-02-19T13:06:22.715Z,6.34
2017-02-19T13:07:31.784Z,6.28
2017-02-19T13:08:40.854Z,6.21
2017-02-19T13:09:50.344Z,6.22
2017-02-19T13:10:59.029Z,6.19
2017-02-19T13:12:08.472Z,6.18
2017-02-19T13:13:17.554Z,6.21
2017-02-19T13:14:26.628Z,6.19
2017-02-19T13:15:36.093Z,6.22
2017-02-19T13:16:45.557Z,6.17
2017-02-19T13:17:55.006Z,6.25
2017-02-19T13:19:04.854Z,6.34
2017-02-19T13:20:13.929Z,6.4
2017-02-19T13:21:22.989Z,6.37
2017-02-19T13:22:32.108Z,6.37
2017-02-19T13:23:41.195Z,6.34
2017-02-19T13:24:50.669Z,6.34
2017-02-19T13:26:00.139Z,6.37
2017-02-19T13:27:09.605Z,6.33
2017-02-19T13:28:18.668Z,6.43
2017-02-19T13:29:27.762Z,6.48
2017-02-19T13:30:37.216Z,6.52
2017-02-19T13:31:46.678Z,6.56
2017-02-19T13:32:55.363Z,6.54
2017-02-19T13:34:04.808Z,6.55
2017-02-19T13:35:13.487Z,6.61
2017-02-19T13:36:23.712Z,6.61
2017-02-19T13:37:32.784Z,6.64
2017-02-19T13:38:41.468Z,6.7
2017-02-19T13:39:50.545Z,6.73
2017-02-19T13:41:00.003Z,6.73
2017-02-19T13:42:09.114Z,6.7
2017-02-19T13:43:17.798Z,6.69
2017-02-19T13:44:26.479Z,6.81
2017-02-19T13:45:35.543Z,6.8
2017-02-19T13:46:44.620Z,6.91
2017-02-19T13:47:53.705Z,6.89
2017-02-19T13:49:03.555Z,6.92
2017-02-19T13:50:12.637Z,6.92
2017-02-19T13:51:22.897Z,6.8
2017-02-19T13:52:32.756Z,6.77
2017-02-19T13:53:42.206Z,6.85
2017-02-19T13:54:51.667Z,6.81
2017-02-19T13:56:01.136Z,6.8
2017-02-19T13:57:10.608Z,6.76
2017-02-19T13:58:19.674Z,6.76
2017-02-19T13:59:28.771Z,6.77
2017-02-19T14:00:38.645Z,6.77
2017-02-19T14:01:48.100Z,6.8
2017-02-19T14:02:57.934Z,6.85
2017-02-19T14:04:07.386Z,6.8
2017-02-19T14:05:16.457Z,6.77
2017-02-19T14:06:25.532Z,6.74
2017-02-19T14:07:34.223Z,6.77
2017-02-19T14:08:44.080Z,6.74
2017-02-19T14:09:53.556Z,6.76
2017-02-19T14:11:03.406Z,6.71
2017-02-19T14:12:12.097Z,6.76
2017-02-19T14:13:20.806Z,6.79
2017-02-19T14:14:29.873Z,6.79
2017-02-19T14:15:38.551Z,6.76
2017-02-19T14:16:47.636Z,6.79
2017-02-19T14:17:57.077Z,6.91
2017-02-19T14:19:06.171Z,7.02
2017-02-19T14:20:15.261Z,7.06
2017-02-19T14:21:24.347Z,6.94
2017-02-19T14:22:33.807Z,6.95
2017-02-19T14:23:43.275Z,6.91
2017-02-19T14:24:52.353Z,6.89
2017-02-19T14:26:01.810Z,6.76
2017-02-19T14:27:11.278Z,6.79
2017-02-19T14:28:20.745Z,6.79
2017-02-19T14:29:29.827Z,6.81
2017-02-19T14:30:38.883Z,6.77
2017-02-19T14:31:48.346Z,6.8
2017-02-19T14:32:57.416Z,6.84
2017-02-19T14:34:06.886Z,6.77
2017-02-19T14:35:15.972Z,6.84
2017-02-19T14:36:25.814Z,6.87
2017-02-19T14:37:35.287Z,6.87
2017-02-19T14:38:44.381Z,6.81
2017-02-19T14:39:53.460Z,6.79
2017-02-19T14:41:02.920Z,6.81
2017-02-19T14:42:11.990Z,6.85
2017-02-19T14:43:21.465Z,6.79
2017-02-19T14:44:30.149Z,6.81
2017-02-19T14:45:39.605Z,6.94
2017-02-19T14:46:49.054Z,6.99
2017-02-19T14:47:58.117Z,7.09
2017-02-19T14:49:07.964Z,7.07
2017-02-19T14:50:17.798Z,6.92
2017-02-19T14:51:26.491Z,7.02
2017-02-19T14:52:35.624Z,7.09
2017-02-19T14:53:45.092Z,7.07
2017-02-19T14:54:53.778Z,7.05
2017-02-19T14:56:03.250Z,7.03
2017-02-19T14:57:12.693Z,7.07
2017-02-19T14:58:22.148Z,6.98
2017-02-19T14:59:30.830Z,6.87
2017-02-19T15:00:40.668Z,6.99
2017-02-19T15:01:49.361Z,6.87
2017-02-19T15:02:58.444Z,6.92
2017-02-19T15:04:07.915Z,7.06
2017-02-19T15:05:16.998Z,7.1
2017-02-19T15:06:26.457Z,7.1
2017-02-19T15:07:35.515Z,7.16
2017-02-19T15:08:44.598Z,7.12
2017-02-19T15:09:53.684Z,7.1
2017-02-19T15:11:03.137Z,7.2
2017-02-19T15:12:12.216Z,7.12
2017-02-19T15:13:21.291Z,7.15
2017-02-19T15:14:31.112Z,7.13
2017-02-19T15:15:39.798Z,7.2
2017-02-19T15:16:48.889Z,7.2
2017-02-19T15:17:58.737Z,7.12
2017-02-19T15:19:08.216Z,7.07
2017-02-19T15:20:18.445Z,7.17
2017-02-19T15:21:27.891Z,7.16
2017-02-19T15:22:37.337Z,7.15
2017-02-19T15:23:46.841Z,7.1
2017-02-19T15:24:56.296Z,7.21
2017-02-19T15:26:06.139Z,7.21
2017-02-19T15:27:15.589Z,7.16
2017-02-19T15:28:25.061Z,7.2